Impacts TAF Board
For situational awareness. Not to be used for flight planning purposes.
IDs:

KCLL - College Station/East, TX, US

Issued at 1441 UTC 23 Sep 2020
Updated at 1605 UTC 23 Sep 2020
Potential Impact None Slight Moderate High
Time1553Z 23/17Z 23/18Z 23/19Z 23/20Z 23/21Z 23/22Z 23/23Z 24/00Z 24/01Z 24/02Z 24/03Z 24/04Z 24/05Z>>
Type OBS PRVL PRVL PRVL PRVL PRVL PRVL PRVL PRVL PRVL PRVL PRVL PRVL PRVL
VIS 10 >6 >6 >6 >6 >6 >6 >6 >6 >6 >6 >6 >6 >6
CIG 7 5 5 5 5 5 5 5 15 15 15 15 15 50
Cover OVC OVC OVC OVC OVC OVC OVC OVC OVC OVC OVC OVC OVC BKN
FltCat IFR IFR IFR IFR IFR IFR IFR IFR MVFR MVFR MVFR MVFR MVFR VFR
WX -- -- -- -- -- -- -- -- -- -- -- -- -- --
WDir 350 350 350 350 350 350 350 350 360 360 360 360 360 360
WSpd 14 13 13 13 13 13 13 13 8 8 8 8 8 5
WGst -- 19 19 19 19 19 19 19 -- -- -- -- -- --
R04/22
XWnd 12 11 11 11 11 11 11 11 6 6 6 6 6 4
XGst -- 16 16 16 16 16 16 16 -- -- -- -- -- --
HWnd 7 7 7 7 7 7 7 7 5 5 5 5 5 3
HGst -- 10 10 10 10 10 10 10 -- -- -- -- -- --
R10/28
XWnd 12 11 11 11 11 11 11 11 8 8 8 8 8 5
XGst -- 17 17 17 17 17 17 17 -- -- -- -- -- --
HWnd -7 -6 -6 -6 -6 -6 -6 -6 -3 -3 -3 -3 -3 -2
HGst -- -9 -9 -9 -9 -9 -9 -9 -- -- -- -- -- --
R16/34
XWnd 0 0 0 0 0 0 0 0 2 2 2 2 2 1
XGst -- 0 0 0 0 0 0 0 -- -- -- -- -- --
HWnd -14 -13 -13 -13 -13 -13 -13 -13 -8 -8 -8 -8 -8 -5
HGst -- -19 -19 -19 -19 -19 -19 -19 -- -- -- -- -- --
Raw TAF
KCLL 231441Z 2315/2412 35013KT P6SM OVC005
  FM231600 35013G19KT P6SM BKN005 OVC010
  FM240000 36008KT P6SM OVC015
  FM240500 36005KT P6SM SCT015 BKN050


Raw METAR
KCLL 231553Z 35014KT 10SM OVC007 22/20 A2991 RMK AO2 SLP126 T02170200
KCLL 231453Z 34014KT 7SM OVC006 21/19 A2991 RMK AO2 SLP123 60001 T02060194 52015
KCLL 231353Z 35013KT 9SM OVC005 20/19 A2989 RMK AO2 SLP119 T02000194

METAR Board
Radar Display
Forecast Discussion
For situational awareness. Not to be used for flight planning purposes.